Time;durP1;ratioP1;P1;durP2;ratioP2;P2;SDS_P1;SDS_P2;PMS_P1;PMS_P2;Temp;Humidity;BMP_temperature;BMP_pressure;BME280_temperature;BME280_humidity;BME280_pressure;Samples;Min_cycle;Max_cycle;Signal;HPM_P1;HPM_P2
2023/06/01 00:01:54;;;;;;;3.67;2.80;;;;;;;;;;4986182;28;20093;-66
2023/06/01 00:04:19;;;;;;;3.93;2.83;;;;;;;;;;4992334;28;20050;-65
2023/06/01 00:06:44;;;;;;;4.27;2.87;;;;;;;;;;4985778;28;20788;-61
2023/06/01 00:09:09;;;;;;;4.23;2.70;;;;;;;;;;4997326;28;20289;-64
2023/06/01 00:11:35;;;;;;;4.37;2.93;;;;;;;;;;5003857;28;20033;-61
2023/06/01 00:14:00;;;;;;;4.22;3.10;;;;;;;;;;4993473;28;20030;-64
2023/06/01 00:16:25;;;;;;;3.80;2.75;;;;;;;;;;4992084;28;20029;-62
2023/06/01 00:49:18;;;;;;;3.60;2.55;;;;;;;;;;4991271;28;20090;-61
2023/06/01 00:51:43;;;;;;;4.13;2.10;;;;;;;;;;4987368;28;20438;-62
2023/06/01 00:54:09;;;;;;;3.53;2.42;;;;;;;;;;4985216;28;20277;-66
2023/06/01 00:56:36;;;;;;;4.82;2.80;;;;;;;;;;4985408;28;20034;-65
2023/06/01 00:59:01;;;;;;;5.55;2.95;;;;;;;;;;4995433;28;20064;-66
2023/06/01 01:01:26;;;;;;;3.70;2.87;;;;;;;;;;4987410;28;20468;-61
2023/06/01 01:03:57;;;;;;;5.77;2.90;;;;;;;;;;4992263;28;20511;-64
2023/06/01 01:06:41;;;;;;;4.18;2.50;;;;;;;;;;5003508;28;20739;-64
2023/06/01 01:09:29;;;;;;;5.25;3.00;;;;;;;;;;4993913;28;20056;-64
2023/06/01 01:12:02;;;;;;;3.35;2.40;;;;;;;;;;4991859;28;20084;-63
2023/06/01 01:14:30;;;;;;;5.05;2.95;;;;;;;;;;4989819;28;20066;-62
2023/06/01 01:17:02;;;;;;;5.10;3.13;;;;;;;;;;4985832;28;20058;-63
2023/06/01 01:19:50;;;;;;;4.20;2.47;;;;;;;;;;4986532;28;20030;-64
2023/06/01 01:22:26;;;;;;;3.42;2.50;;;;;;;;;;5000630;28;20042;-63
2023/06/01 01:25:10;;;;;;;4.03;2.88;;;;;;;;;;4986201;28;20030;-63
2023/06/01 01:27:37;;;;;;;3.53;2.60;;;;;;;;;;4983871;28;20042;-63
2023/06/01 01:30:05;;;;;;;3.72;2.58;;;;;;;;;;4996332;28;20030;-65
2023/06/01 01:32:30;;;;;;;4.07;2.75;;;;;;;;;;4985344;28;20014;-62
2023/06/01 01:34:55;;;;;;;3.50;2.70;;;;;;;;;;5001945;28;20494;-64
2023/06/01 01:37:21;;;;;;;3.13;2.20;;;;;;;;;;4990507;28;20505;-65
2023/06/01 01:39:47;;;;;;;3.65;2.40;;;;;;;;;;4995715;28;20018;-65
2023/06/01 01:42:12;;;;;;;3.47;2.70;;;;;;;;;;4985294;28;20041;-61
2023/06/01 01:44:37;;;;;;;3.33;2.73;;;;;;;;;;4985803;28;20109;-64
2023/06/01 01:47:09;;;;;;;4.27;2.80;;;;;;;;;;4986360;28;20049;-64
2023/06/01 01:49:36;;;;;;;3.60;2.70;;;;;;;;;;5003335;28;20292;-65
2023/06/01 01:52:02;;;;;;;3.95;2.50;;;;;;;;;;4988669;28;20065;-65
2023/06/01 01:54:27;;;;;;;5.47;3.07;;;;;;;;;;4991330;28;20054;-65
2023/06/01 01:56:53;;;;;;;3.93;2.50;;;;;;;;;;5001697;28;20141;-64
2023/06/01 01:59:18;;;;;;;4.07;2.50;;;;;;;;;;4993854;28;20378;-63
2023/06/01 02:01:44;;;;;;;4.00;2.70;;;;;;;;;;4970892;28;20062;-65
2023/06/01 02:04:09;;;;;;;4.65;2.67;;;;;;;;;;4985222;28;20053;-65
2023/06/01 02:06:36;;;;;;;4.13;2.53;;;;;;;;;;4985077;28;20038;-65
2023/06/01 02:09:01;;;;;;;5.13;2.58;;;;;;;;;;4993974;28;20399;-64
2023/06/01 02:11:26;;;;;;;3.20;2.80;;;;;;;;;;4998797;28;20100;-65
2023/06/01 02:13:52;;;;;;;3.33;2.40;;;;;;;;;;4991933;28;20125;-64
2023/06/01 02:16:17;;;;;;;3.67;2.33;;;;;;;;;;4988681;28;20073;-65
2023/06/01 02:18:45;;;;;;;3.70;2.40;;;;;;;;;;5002303;28;20037;-65
2023/06/01 02:21:11;;;;;;;6.53;2.63;;;;;;;;;;4988692;28;20088;-63
2023/06/01 02:23:39;;;;;;;4.68;2.58;;;;;;;;;;4985684;28;20034;-64
2023/06/01 02:26:04;;;;;;;3.40;2.60;;;;;;;;;;4986382;28;20520;-63
2023/06/01 02:28:30;;;;;;;4.13;2.83;;;;;;;;;;4985937;28;20065;-65
2023/06/01 02:30:55;;;;;;;3.83;2.90;;;;;;;;;;4986611;28;20405;-62
2023/06/01 02:33:20;;;;;;;3.90;2.80;;;;;;;;;;4999806;28;20030;-65
2023/06/01 02:35:45;;;;;;;4.50;2.80;;;;;;;;;;4987840;28;20046;-64
2023/06/01 02:38:11;;;;;;;3.63;2.80;;;;;;;;;;4984933;28;20082;-64
2023/06/01 02:40:36;;;;;;;6.40;2.87;;;;;;;;;;4985033;28;20062;-63
2023/06/01 02:43:01;;;;;;;3.80;2.83;;;;;;;;;;4989757;28;20070;-65
2023/06/01 02:45:26;;;;;;;4.57;3.33;;;;;;;;;;4999140;28;20104;-63
2023/06/01 02:47:51;;;;;;;4.90;2.83;;;;;;;;;;4997990;28;20553;-64
2023/06/01 02:50:17;;;;;;;4.30;3.20;;;;;;;;;;5004453;28;20666;-63
2023/06/01 02:52:42;;;;;;;4.77;2.80;;;;;;;;;;4988695;28;20543;-63
2023/06/01 02:55:07;;;;;;;3.90;2.87;;;;;;;;;;4988516;28;20594;-65
2023/06/01 02:57:32;;;;;;;3.97;2.83;;;;;;;;;;4996083;28;20586;-63
2023/06/01 02:59:58;;;;;;;3.87;2.50;;;;;;;;;;4984743;28;20489;-64
2023/06/01 03:02:23;;;;;;;5.53;2.90;;;;;;;;;;4992514;28;20295;-64
2023/06/01 03:04:48;;;;;;;4.90;3.37;;;;;;;;;;4993049;28;20137;-63
2023/06/01 03:07:14;;;;;;;5.88;3.10;;;;;;;;;;4988315;28;20080;-62
2023/06/01 03:09:39;;;;;;;4.35;2.80;;;;;;;;;;4995249;28;20528;-63
2023/06/01 03:12:04;;;;;;;4.65;2.80;;;;;;;;;;4988102;28;20050;-62
2023/06/01 03:14:30;;;;;;;3.85;2.70;;;;;;;;;;4987060;28;20128;-64
2023/06/01 03:16:55;;;;;;;4.07;3.10;;;;;;;;;;4988103;28;20113;-63
2023/06/01 03:19:20;;;;;;;5.33;2.60;;;;;;;;;;4992753;28;21011;-64
2023/06/01 03:21:46;;;;;;;4.00;2.63;;;;;;;;;;4995643;28;20477;-62
2023/06/01 03:24:12;;;;;;;4.38;2.85;;;;;;;;;;4988011;28;20034;-63
2023/06/01 03:26:37;;;;;;;4.80;2.80;;;;;;;;;;4988789;28;20483;-65
2023/06/01 03:29:04;;;;;;;3.50;2.83;;;;;;;;;;4998838;28;20108;-66
2023/06/01 03:31:30;;;;;;;4.32;2.90;;;;;;;;;;5006377;28;20108;-63
2023/06/01 03:33:55;;;;;;;4.40;3.10;;;;;;;;;;5006766;28;20068;-66
2023/06/01 03:36:20;;;;;;;6.03;3.23;;;;;;;;;;4999537;28;20546;-64
2023/06/01 03:38:46;;;;;;;3.60;2.73;;;;;;;;;;4988907;28;20293;-64
2023/06/01 03:41:11;;;;;;;4.27;3.10;;;;;;;;;;4999507;28;20074;-65
2023/06/01 03:43:36;;;;;;;4.00;3.10;;;;;;;;;;4987748;28;20035;-65
2023/06/01 03:46:01;;;;;;;4.20;2.97;;;;;;;;;;4993745;28;20029;-61
2023/06/01 03:48:27;;;;;;;4.30;3.10;;;;;;;;;;5003099;28;20131;-62
2023/06/01 03:50:53;;;;;;;4.23;3.27;;;;;;;;;;5003649;28;20081;-63
2023/06/01 03:53:18;;;;;;;4.32;2.88;;;;;;;;;;5004455;28;20288;-62
2023/06/01 03:55:43;;;;;;;4.53;2.87;;;;;;;;;;5000911;28;20468;-62
2023/06/01 03:58:08;;;;;;;3.33;2.77;;;;;;;;;;5004027;28;20030;-65
2023/06/01 04:00:34;;;;;;;5.07;3.00;;;;;;;;;;4999241;28;20038;-63
2023/06/01 04:03:00;;;;;;;4.23;2.97;;;;;;;;;;5004369;28;20040;-63
2023/06/01 04:05:26;;;;;;;4.13;3.13;;;;;;;;;;4987708;28;20283;-62
2023/06/01 04:07:52;;;;;;;3.88;2.80;;;;;;;;;;5003017;28;20037;-64
2023/06/01 04:10:17;;;;;;;3.40;2.70;;;;;;;;;;5001483;28;20050;-62
2023/06/01 04:12:43;;;;;;;4.13;2.78;;;;;;;;;;4987889;28;20111;-62
2023/06/01 04:15:09;;;;;;;4.53;2.85;;;;;;;;;;4999717;28;20057;-64
2023/06/01 04:17:37;;;;;;;6.15;3.63;;;;;;;;;;4993570;28;21934;-62
2023/06/01 04:20:06;;;;;;;4.95;3.20;;;;;;;;;;4994268;28;20038;-63
2023/06/01 04:22:31;;;;;;;3.83;2.88;;;;;;;;;;4989670;28;20144;-63
2023/06/01 04:24:56;;;;;;;4.65;3.20;;;;;;;;;;4991963;28;20709;-64
2023/06/01 04:27:24;;;;;;;4.90;3.33;;;;;;;;;;4991715;28;20045;-66
2023/06/01 04:29:50;;;;;;;4.97;2.92;;;;;;;;;;4995539;28;20450;-67
2023/06/01 04:32:21;;;;;;;4.40;3.38;;;;;;;;;;4993452;28;20041;-62
2023/06/01 04:34:48;;;;;;;4.72;3.20;;;;;;;;;;4995065;28;20496;-66
2023/06/01 04:37:14;;;;;;;5.10;3.08;;;;;;;;;;4994926;28;20045;-64
2023/06/01 04:39:41;;;;;;;6.30;3.35;;;;;;;;;;4994824;28;20034;-64
2023/06/01 04:42:08;;;;;;;5.47;3.42;;;;;;;;;;4980373;28;20054;-64
2023/06/01 04:44:33;;;;;;;5.05;3.60;;;;;;;;;;4993939;28;20483;-63
2023/06/01 04:47:03;;;;;;;4.78;3.13;;;;;;;;;;4995250;28;20053;-62
2023/06/01 04:49:28;;;;;;;;;;;;;;;;;;4995508;28;20053;-64
2023/06/01 04:51:53;;;;;;;5.40;3.60;;;;;;;;;;4995683;28;19917;-64
2023/06/01 04:54:18;;;;;;;4.80;3.63;;;;;;;;;;4994414;28;20033;-63
2023/06/01 04:56:44;;;;;;;4.63;3.20;;;;;;;;;;4990431;28;20049;-65
2023/06/01 04:59:09;;;;;;;5.65;3.78;;;;;;;;;;4994407;28;20048;-64
2023/06/01 05:01:34;;;;;;;5.57;3.60;;;;;;;;;;4992692;28;20871;-62
2023/06/01 05:04:00;;;;;;;6.28;3.40;;;;;;;;;;4999884;28;20304;-62
2023/06/01 05:06:26;;;;;;;5.03;3.53;;;;;;;;;;4975646;28;21812;-62
2023/06/01 05:08:51;;;;;;;4.32;3.45;;;;;;;;;;4992534;28;20121;-64
2023/06/01 05:11:16;;;;;;;6.32;4.00;;;;;;;;;;4993260;28;20049;-64
2023/06/01 05:13:43;;;;;;;6.03;3.93;;;;;;;;;;4990805;28;20053;-62
2023/06/01 05:16:08;;;;;;;5.68;3.95;;;;;;;;;;5002720;28;20753;-66
2023/06/01 05:18:33;;;;;;;5.63;3.87;;;;;;;;;;5008107;28;20065;-62
2023/06/01 05:20:58;;;;;;;6.70;3.80;;;;;;;;;;5005536;28;20338;-62
2023/06/01 05:23:24;;;;;;;6.25;4.15;;;;;;;;;;5001113;28;20548;-62
2023/06/01 05:25:49;;;;;;;5.40;3.70;;;;;;;;;;4996073;28;20034;-61
2023/06/01 05:28:15;;;;;;;7.22;3.92;;;;;;;;;;5002351;28;20499;-62
2023/06/01 05:30:40;;;;;;;5.63;3.90;;;;;;;;;;4997653;28;20060;-62
2023/06/01 05:33:05;;;;;;;4.68;3.83;;;;;;;;;;4998296;28;20034;-64
2023/06/01 05:35:31;;;;;;;4.55;3.55;;;;;;;;;;5005080;28;20029;-62
2023/06/01 05:37:56;;;;;;;6.00;3.90;;;;;;;;;;5008097;28;20042;-60
2023/06/01 05:40:21;;;;;;;5.93;4.00;;;;;;;;;;5014221;28;20293;-63
2023/06/01 05:42:46;;;;;;;5.67;3.93;;;;;;;;;;5003441;28;20135;-62
2023/06/01 05:45:12;;;;;;;7.67;3.50;;;;;;;;;;5007484;28;20293;-61
2023/06/01 05:47:37;;;;;;;5.73;3.77;;;;;;;;;;5011982;28;20510;-63
2023/06/01 05:50:02;;;;;;;5.97;4.17;;;;;;;;;;4996943;28;20408;-62
2023/06/01 05:52:27;;;;;;;4.95;3.58;;;;;;;;;;5010438;28;20575;-61
2023/06/01 05:54:53;;;;;;;5.00;3.90;;;;;;;;;;5007783;28;20079;-61
2023/06/01 05:57:19;;;;;;;5.43;3.92;;;;;;;;;;4996715;28;20046;-63
2023/06/01 05:59:45;;;;;;;4.97;3.75;;;;;;;;;;4980627;28;20042;-63
2023/06/01 06:02:11;;;;;;;5.53;3.80;;;;;;;;;;5004915;28;20042;-61
2023/06/01 06:04:36;;;;;;;7.27;4.07;;;;;;;;;;5000176;28;20376;-60
2023/06/01 06:07:01;;;;;;;5.67;3.90;;;;;;;;;;5007138;28;20506;-61
2023/06/01 06:09:26;;;;;;;5.67;3.70;;;;;;;;;;5008184;28;20556;-63
2023/06/01 06:11:51;;;;;;;6.57;4.30;;;;;;;;;;4999523;28;20492;-61
2023/06/01 06:14:17;;;;;;;4.90;3.60;;;;;;;;;;5004482;28;20551;-63
2023/06/01 06:16:42;;;;;;;6.53;3.97;;;;;;;;;;5005103;28;20042;-62
2023/06/01 06:19:07;;;;;;;6.73;3.73;;;;;;;;;;4994741;28;20665;-63
2023/06/01 06:21:33;;;;;;;5.33;3.73;;;;;;;;;;5001423;28;20511;-64
2023/06/01 06:23:58;;;;;;;6.40;4.18;;;;;;;;;;5009260;28;20668;-62
2023/06/01 06:26:25;;;;;;;6.55;4.13;;;;;;;;;;5009232;28;20488;-62
2023/06/01 06:28:51;;;;;;;7.07;3.95;;;;;;;;;;5012849;28;20029;-65
2023/06/01 06:31:16;;;;;;;5.30;4.00;;;;;;;;;;5009950;28;20215;-63
2023/06/01 06:33:41;;;;;;;7.53;3.97;;;;;;;;;;5008557;28;20281;-64
2023/06/01 06:36:07;;;;;;;9.00;5.50;;;;;;;;;;5000839;28;20433;-61
2023/06/01 06:38:32;;;;;;;6.13;4.17;;;;;;;;;;5010511;28;20370;-64
2023/06/01 06:40:57;;;;;;;6.20;4.35;;;;;;;;;;5013875;28;20045;-64
2023/06/01 06:43:23;;;;;;;5.93;4.28;;;;;;;;;;5016442;28;20499;-60
2023/06/01 06:45:48;;;;;;;4.97;3.77;;;;;;;;;;5012664;28;20037;-61
2023/06/01 06:48:13;;;;;;;5.40;4.00;;;;;;;;;;4970951;28;20097;-60
2023/06/01 06:50:41;;;;;;;4.97;3.63;;;;;;;;;;4995174;28;20088;-61
2023/06/01 06:53:06;;;;;;;6.95;4.30;;;;;;;;;;4994778;28;20709;-61
2023/06/01 06:55:31;;;;;;;6.77;4.07;;;;;;;;;;4979031;28;20038;-61
2023/06/01 06:57:57;;;;;;;7.47;3.92;;;;;;;;;;4995130;28;20060;-60
2023/06/01 07:00:22;;;;;;;6.90;4.20;;;;;;;;;;4995709;28;20557;-60
2023/06/01 07:02:47;;;;;;;6.40;4.30;;;;;;;;;;4997873;28;20289;-60
2023/06/01 07:05:13;;;;;;;5.88;3.92;;;;;;;;;;5006085;28;20301;-61
2023/06/01 07:07:38;;;;;;;6.30;4.10;;;;;;;;;;5006978;28;20558;-61
2023/06/01 07:10:04;;;;;;;7.32;4.82;;;;;;;;;;4999758;28;20062;-61
2023/06/01 07:12:30;;;;;;;6.93;4.50;;;;;;;;;;5005704;28;20108;-62
2023/06/01 07:14:55;;;;;;;6.68;4.18;;;;;;;;;;5013322;28;20483;-63
2023/06/01 07:17:21;;;;;;;5.78;4.25;;;;;;;;;;5011180;28;20044;-64
2023/06/01 07:19:46;;;;;;;5.65;4.30;;;;;;;;;;5013986;28;20528;-62
2023/06/01 07:22:11;;;;;;;6.28;4.22;;;;;;;;;;4990731;28;20034;-60
2023/06/01 07:24:37;;;;;;;6.93;4.30;;;;;;;;;;4997781;28;20045;-61
2023/06/01 07:27:02;;;;;;;6.33;4.30;;;;;;;;;;5010126;28;20280;-62
2023/06/01 07:29:27;;;;;;;4.57;3.90;;;;;;;;;;4983046;28;20108;-62
2023/06/01 07:31:53;;;;;;;5.13;4.20;;;;;;;;;;5007807;28;20288;-63
2023/06/01 07:34:18;;;;;;;6.73;4.60;;;;;;;;;;4978642;28;20101;-61
2023/06/01 07:36:45;;;;;;;5.80;4.30;;;;;;;;;;5015386;28;20281;-60
2023/06/01 07:39:11;;;;;;;6.30;4.15;;;;;;;;;;5018391;28;20049;-63
2023/06/01 07:41:36;;;;;;;7.63;4.80;;;;;;;;;;5002669;28;20033;-63
2023/06/01 07:44:01;;;;;;;6.13;4.47;;;;;;;;;;5019381;28;20522;-64
2023/06/01 07:46:26;;;;;;;6.47;4.33;;;;;;;;;;5000837;28;20401;-60
2023/06/01 07:48:52;;;;;;;7.90;4.63;;;;;;;;;;4999834;28;20159;-60
2023/06/01 07:51:17;;;;;;;5.78;4.30;;;;;;;;;;4999992;28;20289;-60
2023/06/01 07:53:43;;;;;;;6.77;4.13;;;;;;;;;;5006010;28;20132;-61
2023/06/01 07:56:08;;;;;;;6.53;4.47;;;;;;;;;;5003361;28;20123;-62
2023/06/01 07:58:33;;;;;;;6.22;3.83;;;;;;;;;;5006523;28;20453;-58
2023/06/01 08:00:58;;;;;;;6.07;4.30;;;;;;;;;;5000547;28;20030;-62
2023/06/01 08:03:25;;;;;;;5.40;3.67;;;;;;;;;;4995992;28;20121;-61
2023/06/01 08:05:51;;;;;;;5.38;4.03;;;;;;;;;;4988283;28;20141;-62
2023/06/01 08:08:17;;;;;;;6.40;4.28;;;;;;;;;;4997142;28;20041;-60
2023/06/01 08:10:42;;;;;;;4.90;3.75;;;;;;;;;;5002896;28;20046;-61
2023/06/01 08:13:07;;;;;;;5.55;4.18;;;;;;;;;;4998814;28;20054;-61
2023/06/01 08:15:34;;;;;;;6.93;4.77;;;;;;;;;;4999801;28;20570;-62
2023/06/01 08:17:59;;;;;;;7.15;4.43;;;;;;;;;;5003603;28;20300;-62
2023/06/01 08:20:26;;;;;;;8.80;4.00;;;;;;;;;;4994064;28;20038;-61
2023/06/01 08:22:51;;;;;;;6.07;4.32;;;;;;;;;;5011006;28;20069;-61
2023/06/01 08:25:17;;;;;;;6.70;4.20;;;;;;;;;;5002242;28;20073;-61
2023/06/01 08:27:43;;;;;;;5.78;4.40;;;;;;;;;;4996056;28;20309;-62
2023/06/01 08:30:08;;;;;;;7.50;4.68;;;;;;;;;;4996045;28;20064;-62
2023/06/01 08:32:33;;;;;;;5.75;3.92;;;;;;;;;;4998504;28;20485;-61
2023/06/01 08:34:58;;;;;;;6.97;4.37;;;;;;;;;;5003195;28;20536;-60
2023/06/01 08:37:24;;;;;;;7.17;5.10;;;;;;;;;;4987423;28;20445;-64
2023/06/01 08:39:49;;;;;;;6.28;4.30;;;;;;;;;;4989359;28;20297;-60
2023/06/01 08:42:31;;;;;;;6.03;4.40;;;;;;;;;;4998080;28;20121;-61
2023/06/01 08:44:57;;;;;;;5.50;4.15;;;;;;;;;;4985369;28;20085;-59
2023/06/01 08:47:23;;;;;;;6.03;4.55;;;;;;;;;;4985131;28;20022;-63
2023/06/01 08:49:49;;;;;;;6.72;4.70;;;;;;;;;;5000180;28;20064;-61
2023/06/01 08:52:15;;;;;;;10.70;5.00;;;;;;;;;;5005860;28;20025;-62
2023/06/01 08:54:40;;;;;;;7.25;4.97;;;;;;;;;;4984783;28;20276;-62
2023/06/01 08:57:09;;;;;;;8.27;5.43;;;;;;;;;;5004253;28;20514;-62
2023/06/01 08:59:34;;;;;;;6.82;4.90;;;;;;;;;;4972663;28;20269;-62
2023/06/01 09:01:59;;;;;;;7.20;5.35;;;;;;;;;;4990753;28;20164;-60
2023/06/01 09:04:25;;;;;;;7.63;4.63;;;;;;;;;;4993428;28;20389;-62
2023/06/01 09:06:51;;;;;;;7.75;4.45;;;;;;;;;;4989734;28;20512;-61
2023/06/01 09:09:17;;;;;;;7.88;4.95;;;;;;;;;;4996904;28;20022;-60
2023/06/01 09:11:42;;;;;;;7.80;4.67;;;;;;;;;;4992719;28;20847;-63
2023/06/01 09:14:23;;;;;;;8.32;5.25;;;;;;;;;;5000999;28;20276;-61
2023/06/01 09:16:48;;;;;;;8.35;6.22;;;;;;;;;;5004485;28;20493;-61
2023/06/01 09:19:13;;;;;;;8.40;6.13;;;;;;;;;;4999297;28;20037;-61
2023/06/01 09:21:39;;;;;;;10.90;6.20;;;;;;;;;;5007655;28;20045;-61
2023/06/01 09:24:17;;;;;;;7.57;5.30;;;;;;;;;;5003756;28;20430;-62
2023/06/01 09:26:43;;;;;;;11.27;6.32;;;;;;;;;;5014255;28;20026;-62
2023/06/01 09:29:08;;;;;;;11.77;7.27;;;;;;;;;;4988303;28;20100;-62
2023/06/01 09:31:46;;;;;;;10.73;7.38;;;;;;;;;;4990179;28;20439;-61
2023/06/01 09:34:12;;;;;;;10.02;6.95;;;;;;;;;;5003728;28;20108;-62
2023/06/01 09:36:37;;;;;;;12.70;6.90;;;;;;;;;;4991857;28;20038;-64
2023/06/01 09:39:13;;;;;;;14.55;8.23;;;;;;;;;;5000947;28;20041;-62
2023/06/01 09:42:04;;;;;;;45.75;30.67;;;;;;;;;;5001298;28;20049;-61
2023/06/01 09:44:30;;;;;;;56.03;35.47;;;;;;;;;;5001320;28;20038;-62
2023/06/01 09:46:58;;;;;;;45.40;27.90;;;;;;;;;;4974948;28;20057;-61
2023/06/01 09:49:27;;;;;;;16.60;9.88;;;;;;;;;;4973153;28;20055;-61
2023/06/01 09:51:53;;;;;;;15.90;7.57;;;;;;;;;;4988002;28;20046;-61
2023/06/01 09:54:25;;;;;;;14.20;7.60;;;;;;;;;;4990073;28;20069;-61
2023/06/01 09:56:50;;;;;;;12.40;7.10;;;;;;;;;;4988990;28;20077;-61
2023/06/01 09:59:15;;;;;;;10.90;7.00;;;;;;;;;;4990175;28;20062;-62
2023/06/01 10:01:41;;;;;;;11.07;6.80;;;;;;;;;;4991105;28;20411;-61
2023/06/01 10:04:06;;;;;;;11.47;6.80;;;;;;;;;;4988532;28;20711;-59
2023/06/01 10:06:33;;;;;;;11.68;6.53;;;;;;;;;;4989028;28;20362;-61
2023/06/01 10:08:58;;;;;;;12.65;5.90;;;;;;;;;;4985471;28;20039;-61
2023/06/01 10:11:23;;;;;;;8.50;6.03;;;;;;;;;;5002202;28;20050;-61
2023/06/01 10:13:49;;;;;;;9.43;5.30;;;;;;;;;;5002144;28;20038;-60
2023/06/01 10:16:14;;;;;;;7.63;4.80;;;;;;;;;;5002336;28;20303;-61
2023/06/01 10:18:39;;;;;;;8.07;4.70;;;;;;;;;;4985845;28;20026;-61
2023/06/01 10:21:06;;;;;;;9.13;4.68;;;;;;;;;;4989521;28;20046;-62
2023/06/01 10:23:31;;;;;;;6.18;4.22;;;;;;;;;;4998781;28;20431;-62
2023/06/01 10:25:57;;;;;;;7.70;3.97;;;;;;;;;;4988371;28;20026;-62
2023/06/01 10:28:23;;;;;;;5.43;3.78;;;;;;;;;;5001329;28;20811;-62
2023/06/01 10:31:08;;;;;;;5.85;3.95;;;;;;;;;;4994705;28;20076;-61
2023/06/01 10:33:53;;;;;;;7.95;3.80;;;;;;;;;;4999359;28;20080;-61
2023/06/01 10:36:18;;;;;;;5.55;3.83;;;;;;;;;;5000329;28;20038;-61
2023/06/01 10:38:43;;;;;;;5.03;3.07;;;;;;;;;;4999864;28;20083;-61
2023/06/01 10:41:25;;;;;;;5.37;3.30;;;;;;;;;;5013548;28;20097;-60
2023/06/01 10:43:50;;;;;;;8.85;4.00;;;;;;;;;;5005153;28;20295;-61
2023/06/01 10:46:35;;;;;;;6.17;3.90;;;;;;;;;;4991006;28;20117;-62
2023/06/01 10:49:00;;;;;;;6.75;3.80;;;;;;;;;;5001188;28;20034;-61
2023/06/01 10:51:25;;;;;;;7.68;4.10;;;;;;;;;;5005334;28;20103;-60
2023/06/01 10:53:52;;;;;;;8.23;3.90;;;;;;;;;;5011309;28;20449;-61
2023/06/01 10:56:18;;;;;;;7.15;4.60;;;;;;;;;;4992183;28;20824;-62
2023/06/01 10:58:44;;;;;;;5.93;4.57;;;;;;;;;;4953322;28;20038;-60
2023/06/01 11:01:10;;;;;;;6.25;4.68;;;;;;;;;;4987855;28;20091;-60
2023/06/01 11:03:45;;;;;;;7.18;4.50;;;;;;;;;;4986939;28;20495;-64
2023/06/01 11:06:23;;;;;;;6.63;4.93;;;;;;;;;;4991283;28;20070;-61
2023/06/01 11:08:48;;;;;;;6.57;4.88;;;;;;;;;;4994382;28;20038;-59
2023/06/01 11:11:13;;;;;;;6.10;4.35;;;;;;;;;;4991862;28;20061;-64
2023/06/01 11:13:39;;;;;;;8.60;4.80;;;;;;;;;;4992601;28;20047;-61
2023/06/01 11:16:04;;;;;;;6.50;4.38;;;;;;;;;;4994290;28;20473;-64
2023/06/01 11:18:58;;;;;;;5.80;3.80;;;;;;;;;;4993502;28;20034;-64
2023/06/01 11:21:31;;;;;;;6.28;4.30;;;;;;;;;;4991101;28;20073;-62
2023/06/01 11:23:57;;;;;;;5.15;3.70;;;;;;;;;;4993460;28;20042;-65
2023/06/01 11:26:25;;;;;;;5.53;3.67;;;;;;;;;;4992640;28;20212;-66
2023/06/01 11:28:50;;;;;;;5.75;3.47;;;;;;;;;;4994175;28;20085;-62
2023/06/01 11:31:16;;;;;;;6.43;3.75;;;;;;;;;;4995575;28;20131;-65
2023/06/01 11:33:41;;;;;;;4.65;3.25;;;;;;;;;;4999908;28;21566;-60
2023/06/01 11:36:07;;;;;;;5.50;3.70;;;;;;;;;;4990629;28;20042;-67
2023/06/01 11:38:33;;;;;;;4.40;3.38;;;;;;;;;;5009277;28;20488;-65
2023/06/01 11:41:01;;;;;;;4.85;3.30;;;;;;;;;;4996048;28;20174;-62
2023/06/01 11:43:30;;;;;;;5.07;3.20;;;;;;;;;;4994145;28;20030;-63
2023/06/01 11:46:02;;;;;;;6.30;3.10;;;;;;;;;;4993313;28;20137;-63
2023/06/01 11:48:27;;;;;;;4.95;3.25;;;;;;;;;;4993086;28;20085;-61
2023/06/01 11:50:54;;;;;;;7.60;3.45;;;;;;;;;;4993267;28;20158;-62
2023/06/01 11:53:19;;;;;;;5.55;3.60;;;;;;;;;;4993428;28;20125;-64
2023/06/01 11:55:51;;;;;;;6.55;3.40;;;;;;;;;;4976449;28;20457;-64
2023/06/01 11:58:23;;;;;;;5.25;3.08;;;;;;;;;;4996878;28;20026;-61
2023/06/01 12:00:48;;;;;;;5.57;3.08;;;;;;;;;;4996076;28;20030;-63
2023/06/01 12:03:14;;;;;;;4.87;3.27;;;;;;;;;;4993521;28;20019;-63
2023/06/01 12:05:43;;;;;;;3.75;2.63;;;;;;;;;;4993511;28;20307;-61
2023/06/01 12:08:08;;;;;;;4.65;2.92;;;;;;;;;;4993031;28;20032;-61
2023/06/01 12:10:33;;;;;;;4.47;3.00;;;;;;;;;;4980966;28;20030;-63
2023/06/01 12:12:59;;;;;;;4.43;3.37;;;;;;;;;;4996288;28;20026;-65
2023/06/01 12:15:24;;;;;;;4.93;2.60;;;;;;;;;;4998471;28;20026;-62
2023/06/01 12:17:50;;;;;;;4.45;2.88;;;;;;;;;;4999947;28;20378;-66
2023/06/01 12:20:45;;;;;;;5.20;3.20;;;;;;;;;;4985106;28;20244;-66
2023/06/01 12:23:12;;;;;;;4.82;3.03;;;;;;;;;;5007178;28;20046;-65
2023/06/01 12:25:38;;;;;;;6.35;3.65;;;;;;;;;;5008501;28;20140;-69
2023/06/01 12:28:07;;;;;;;8.25;3.30;;;;;;;;;;5003271;28;20449;-67
2023/06/01 12:30:32;;;;;;;5.32;3.30;;;;;;;;;;5006299;28;20057;-68
2023/06/01 12:32:57;;;;;;;5.30;3.45;;;;;;;;;;5005675;28;20695;-68
2023/06/01 12:35:23;;;;;;;6.60;3.27;;;;;;;;;;5011136;28;20500;-68
2023/06/01 12:38:08;;;;;;;6.65;3.55;;;;;;;;;;5001572;28;20265;-62
2023/06/01 12:40:34;;;;;;;7.43;3.28;;;;;;;;;;4997472;28;20034;-67
2023/06/01 12:43:01;;;;;;;6.88;3.90;;;;;;;;;;4993955;28;20502;-67
2023/06/01 12:45:36;;;;;;;4.67;3.60;;;;;;;;;;4994894;28;20068;-63
2023/06/01 12:48:01;;;;;;;6.68;4.13;;;;;;;;;;5002318;28;20062;-62
2023/06/01 12:50:26;;;;;;;5.80;3.40;;;;;;;;;;5006511;28;20046;-63
2023/06/01 12:52:51;;;;;;;6.17;4.00;;;;;;;;;;5019506;28;20282;-70
2023/06/01 12:55:18;;;;;;;6.53;4.07;;;;;;;;;;4991858;28;20401;-65
2023/06/01 12:57:43;;;;;;;6.28;3.80;;;;;;;;;;5008573;28;20036;-65
2023/06/01 13:00:09;;;;;;;5.97;3.92;;;;;;;;;;5003046;28;20102;-64
2023/06/01 13:02:34;;;;;;;5.38;3.50;;;;;;;;;;4996471;28;20169;-63
2023/06/01 13:04:59;;;;;;;6.28;3.90;;;;;;;;;;5005916;28;20068;-64
2023/06/01 13:07:25;;;;;;;7.70;4.47;;;;;;;;;;5004612;28;20144;-62
2023/06/01 13:09:51;;;;;;;6.82;4.43;;;;;;;;;;5012364;28;20315;-61
2023/06/01 13:12:17;;;;;;;6.45;3.92;;;;;;;;;;5011590;28;20211;-64
2023/06/01 13:14:42;;;;;;;6.03;3.90;;;;;;;;;;5004676;28;20045;-65
2023/06/01 13:17:07;;;;;;;5.32;3.90;;;;;;;;;;4997379;28;20034;-68
2023/06/01 13:19:33;;;;;;;6.60;4.00;;;;;;;;;;5013152;28;20041;-65
2023/06/01 13:21:58;;;;;;;8.20;4.23;;;;;;;;;;5012218;28;20285;-66
2023/06/01 13:24:23;;;;;;;5.43;3.22;;;;;;;;;;5018242;28;20296;-65
2023/06/01 13:26:48;;;;;;;5.93;3.40;;;;;;;;;;4991041;28;20393;-65
2023/06/01 13:29:14;;;;;;;4.95;3.10;;;;;;;;;;5001958;28;20635;-66
2023/06/01 13:31:39;;;;;;;5.00;3.30;;;;;;;;;;4997389;28;20053;-67
2023/06/01 13:34:04;;;;;;;4.97;2.93;;;;;;;;;;4993490;28;20108;-72
2023/06/01 13:36:30;;;;;;;5.05;3.10;;;;;;;;;;4999405;28;20504;-72
2023/06/01 13:38:55;;;;;;;4.57;2.90;;;;;;;;;;5005548;28;20084;-73
2023/06/01 13:41:21;;;;;;;3.80;2.67;;;;;;;;;;5003831;28;20104;-70
2023/06/01 13:43:46;;;;;;;3.75;2.53;;;;;;;;;;4994804;28;20026;-67
2023/06/01 13:46:12;;;;;;;3.90;2.40;;;;;;;;;;5001028;28;20108;-66
2023/06/01 13:48:37;;;;;;;5.22;2.30;;;;;;;;;;5010893;28;20034;-63
2023/06/01 13:51:03;;;;;;;4.75;2.20;;;;;;;;;;5018950;28;20049;-66
2023/06/01 13:53:28;;;;;;;3.80;2.30;;;;;;;;;;5017785;28;20042;-64
2023/06/01 13:55:53;;;;;;;4.03;2.05;;;;;;;;;;4989158;28;20054;-62
2023/06/01 13:58:19;;;;;;;4.57;1.98;;;;;;;;;;5011120;28;20140;-65
2023/06/01 14:00:44;;;;;;;4.00;1.77;;;;;;;;;;5007247;28;20027;-65
2023/06/01 14:03:10;;;;;;;3.40;2.20;;;;;;;;;;5010593;28;20041;-63
2023/06/01 14:05:35;;;;;;;3.97;2.10;;;;;;;;;;4999508;28;20336;-69
2023/06/01 14:08:02;;;;;;;4.37;2.10;;;;;;;;;;5004863;28;20037;-65
2023/06/01 14:10:27;;;;;;;3.10;2.00;;;;;;;;;;5004761;28;20438;-66
2023/06/01 14:12:53;;;;;;;3.17;2.05;;;;;;;;;;5006676;28;20045;-65
2023/06/01 14:15:18;;;;;;;5.43;2.40;;;;;;;;;;4996495;28;20544;-64
2023/06/01 14:17:44;;;;;;;3.58;2.28;;;;;;;;;;5003887;28;20034;-62
2023/06/01 14:20:09;;;;;;;4.80;2.85;;;;;;;;;;4995356;28;20394;-60
2023/06/01 14:22:34;;;;;;;4.75;3.00;;;;;;;;;;4999964;28;20213;-61
2023/06/01 14:25:00;;;;;;;5.63;2.90;;;;;;;;;;4991681;28;20038;-64
2023/06/01 14:27:25;;;;;;;4.82;2.65;;;;;;;;;;4996212;28;20053;-59
2023/06/01 14:29:50;;;;;;;5.28;2.75;;;;;;;;;;4999435;28;20038;-62
2023/06/01 14:32:16;;;;;;;4.10;2.63;;;;;;;;;;5004297;28;20133;-64
2023/06/01 14:34:41;;;;;;;4.97;2.60;;;;;;;;;;5000181;28;20038;-60
2023/06/01 14:37:10;;;;;;;5.47;3.03;;;;;;;;;;4997252;28;20030;-62
2023/06/01 14:39:35;;;;;;;5.80;3.07;;;;;;;;;;4990296;28;20058;-62
2023/06/01 14:42:00;;;;;;;5.60;3.17;;;;;;;;;;4983841;28;20273;-65
2023/06/01 14:44:26;;;;;;;6.70;3.10;;;;;;;;;;4989667;28;20297;-64
2023/06/01 14:46:51;;;;;;;7.10;3.27;;;;;;;;;;5004264;28;20034;-60
2023/06/01 14:49:16;;;;;;;7.87;3.40;;;;;;;;;;5009150;28;20041;-63
2023/06/01 14:51:41;;;;;;;6.87;3.30;;;;;;;;;;5009534;28;20053;-62
2023/06/01 14:54:06;;;;;;;4.90;3.13;;;;;;;;;;5004110;28;20062;-61
2023/06/01 14:56:32;;;;;;;5.63;3.30;;;;;;;;;;4995255;28;20034;-60
2023/06/01 14:58:57;;;;;;;6.13;3.80;;;;;;;;;;5001368;28;20073;-61
2023/06/01 15:01:23;;;;;;;6.57;3.10;;;;;;;;;;4998780;28;20035;-64
2023/06/01 15:03:49;;;;;;;4.90;3.55;;;;;;;;;;5001081;28;20034;-63
2023/06/01 15:06:14;;;;;;;7.72;3.88;;;;;;;;;;5001847;28;20045;-60
2023/06/01 15:08:39;;;;;;;5.30;3.70;;;;;;;;;;5007335;28;20019;-64
2023/06/01 15:11:04;;;;;;;6.23;3.80;;;;;;;;;;5011011;28;20305;-61